createdAt,value
2022-10-05T08:47:49.192Z,101461.50
2022-10-05T08:50:37.910Z,101461.69
2022-10-05T08:53:19.518Z,101463.25
2022-10-05T08:56:28.609Z,101464.34
2022-10-05T08:59:21.073Z,101460.09
2022-10-05T09:01:53.794Z,101466.19
2022-10-05T09:04:43.255Z,101467.97
2022-10-05T09:07:50.552Z,101478.44
2022-10-05T09:10:39.397Z,101473.16
2022-10-05T09:13:12.486Z,101474.84
2022-10-05T09:16:04.534Z,101483.41
2022-10-05T09:18:53.880Z,101480.75
2022-10-05T09:21:39.251Z,101457.97
2022-10-05T09:24:15.366Z,101472.75
2022-10-05T09:27:01.658Z,101465.75
2022-10-05T09:30:01.249Z,101475.25
2022-10-05T09:33:04.752Z,101478.63
2022-10-05T09:36:22.645Z,101472.34
2022-10-05T09:39:08.319Z,101474.91
2022-10-05T09:42:03.093Z,101464.19
2022-10-05T09:45:02.105Z,101470.34
2022-10-05T09:47:34.988Z,101467.72
2022-10-05T09:50:18.246Z,101463.34
2022-10-05T09:53:27.384Z,101455.44
2022-10-05T09:56:05.450Z,101450.97
2022-10-05T09:59:18.142Z,101429.22
2022-10-05T10:02:07.201Z,101451.78
2022-10-05T10:05:05.870Z,101453.47
2022-10-05T10:07:38.945Z,101466.53
2022-10-05T10:10:48.325Z,101472.59
2022-10-05T10:13:51.846Z,101458.50
2022-10-05T10:16:49.768Z,101463.69
2022-10-05T10:19:51.341Z,101465.41
2022-10-05T10:23:18.725Z,101460.09
2022-10-05T10:26:13.033Z,101455.75
2022-10-05T10:28:49.314Z,101468.81
2022-10-05T10:31:54.409Z,101467.00
2022-10-05T10:34:51.396Z,101456.47
2022-10-05T10:37:35.362Z,101445.91
2022-10-05T10:40:30.490Z,101452.78
2022-10-05T10:43:23.437Z,101450.00
2022-10-05T10:46:50.520Z,101446.38
2022-10-05T10:49:38.907Z,101447.09
2022-10-05T10:52:20.883Z,101441.75
2022-10-05T10:54:56.667Z,101438.97
2022-10-05T10:58:02.062Z,101438.97
2022-10-05T11:00:50.128Z,101444.97
2022-10-05T11:03:58.954Z,101447.59
2022-10-05T11:07:04.121Z,101437.91
2022-10-05T11:09:49.254Z,101446.59
2022-10-05T11:12:58.149Z,101438.72
2022-10-05T11:15:39.481Z,101444.88
2022-10-05T11:18:22.982Z,101446.63
2022-10-05T11:20:58.973Z,101445.72
2022-10-05T11:23:47.310Z,101454.28
2022-10-05T11:26:52.246Z,101445.50
2022-10-05T11:29:37.249Z,101431.44
2022-10-05T11:32:48.556Z,101441.88
2022-10-05T11:35:31.301Z,101427.69
2022-10-05T11:38:08.243Z,101432.06
2022-10-05T11:40:56.779Z,101438.97
2022-10-05T11:43:47.565Z,101437.97
2022-10-05T11:46:46.299Z,101438.88
2022-10-05T11:49:40.261Z,101426.72
2022-10-05T11:52:45.076Z,101415.41
2022-10-05T11:55:23.633Z,101440.47
2022-10-05T11:57:59.088Z,101409.03
2022-10-05T12:00:42.988Z,101429.72
2022-10-05T12:03:23.294Z,101420.91
2022-10-05T12:06:07.363Z,101428.66
2022-10-05T12:08:56.778Z,101425.91
2022-10-05T12:11:38.646Z,101418.00
2022-10-05T12:14:55.333Z,101421.44
2022-10-05T12:18:14.107Z,101433.63
2022-10-05T12:20:56.068Z,101425.75
2022-10-05T12:23:26.936Z,101425.72
2022-10-05T12:26:12.108Z,101415.19
2022-10-05T12:28:55.826Z,101427.34
2022-10-05T12:31:58.048Z,101427.41
2022-10-05T12:34:34.013Z,101426.38
2022-10-05T12:37:30.106Z,101413.22
2022-10-05T12:40:08.725Z,101415.59
2022-10-05T12:42:51.980Z,101417.34
2022-10-05T12:45:40.493Z,101423.53
2022-10-05T12:48:29.347Z,101414.66
2022-10-05T12:51:32.035Z,101414.59
2022-10-05T12:54:20.256Z,101417.16
2022-10-05T12:57:12.333Z,101419.88
2022-10-05T12:59:55.232Z,101413.84
2022-10-05T13:02:31.120Z,101410.34
2022-10-05T13:05:10.017Z,101419.94
2022-10-05T13:07:45.848Z,101418.09
2022-10-05T13:10:39.558Z,101393.56
2022-10-05T13:13:19.048Z,101416.19
2022-10-05T13:16:43.434Z,101419.59
2022-10-05T13:19:13.706Z,101435.34
2022-10-05T13:21:46.630Z,101427.53
2022-10-05T13:24:30.377Z,101419.69
2022-10-05T13:27:08.667Z,101413.69
2022-10-05T13:30:14.478Z,101407.25
2022-10-05T13:33:03.384Z,101410.59
2022-10-05T13:35:46.316Z,101407.84
2022-10-05T13:38:29.059Z,101409.41
2022-10-05T13:41:17.073Z,101410.25
2022-10-05T13:43:55.987Z,101407.72
2022-10-05T13:46:48.665Z,101413.09
2022-10-05T13:49:26.594Z,101415.72
2022-10-05T13:52:00.195Z,101401.84
2022-10-05T13:55:06.998Z,101394.81
2022-10-05T13:57:57.926Z,101399.38
2022-10-05T14:00:28.249Z,101398.63
2022-10-05T14:03:01.129Z,101395.22
2022-10-05T14:05:32.074Z,101367.56
2022-10-05T14:08:02.119Z,101386.72
2022-10-05T14:10:44.119Z,101384.16
2022-10-05T14:13:46.990Z,101386.72
2022-10-05T14:16:20.479Z,101388.31
2022-10-05T14:19:19.181Z,101362.28
2022-10-05T14:22:12.340Z,101397.78
2022-10-05T14:24:55.797Z,101389.88
2022-10-05T14:27:29.065Z,101392.53
2022-10-05T14:30:01.681Z,101397.00
2022-10-05T14:32:43.474Z,101396.25
2022-10-05T14:35:24.125Z,101385.84
2022-10-05T14:37:56.231Z,101395.53
2022-10-05T14:40:31.691Z,101391.19
2022-10-05T14:43:14.242Z,101393.84
2022-10-05T14:46:02.722Z,101394.78
2022-10-05T14:48:44.032Z,101389.59
2022-10-05T14:51:42.358Z,101398.31
2022-10-05T14:54:36.111Z,101389.56
2022-10-05T14:57:19.977Z,101382.69
2022-10-05T15:00:06.642Z,101394.16
2022-10-05T15:02:59.946Z,101402.22
2022-10-05T15:05:50.996Z,101396.34
2022-10-05T15:16:31.799Z,101394.16
2022-10-05T15:19:24.438Z,101392.63
2022-10-05T15:22:08.228Z,101395.34
2022-10-05T15:24:52.699Z,101387.50
2022-10-05T15:27:31.852Z,101388.41
2022-10-05T15:30:12.178Z,101337.59
2022-10-05T15:33:01.933Z,101390.41
2022-10-05T15:35:54.387Z,101390.41
2022-10-05T15:38:27.601Z,101395.00
2022-10-05T15:41:15.209Z,101373.44
2022-10-05T15:44:06.435Z,101399.59
2022-10-05T15:46:36.825Z,101390.94
2022-10-05T15:49:29.295Z,101398.84
2022-10-05T15:52:24.119Z,101398.03
2022-10-05T15:55:24.986Z,101387.63
2022-10-05T15:58:16.768Z,101382.47
2022-10-05T16:00:51.906Z,101384.22
2022-10-05T16:03:42.205Z,101381.63
2022-10-05T16:06:39.345Z,101374.69
2022-10-05T16:09:43.425Z,101373.84
2022-10-05T16:12:32.377Z,101376.56
2022-10-05T16:15:16.384Z,101379.19
2022-10-05T16:18:30.458Z,101380.09
2022-10-05T16:21:30.710Z,101374.94
2022-10-05T16:24:19.451Z,101382.00
2022-10-05T16:26:59.879Z,101374.19
2022-10-05T16:30:08.776Z,101380.38
2022-10-05T16:33:02.861Z,101369.13
2022-10-05T16:35:38.999Z,101371.75
2022-10-05T16:38:18.100Z,101374.44
2022-10-05T16:41:07.123Z,101366.63
2022-10-05T16:43:52.486Z,101371.91
2022-10-05T16:46:46.903Z,101375.44
2022-10-05T16:49:32.769Z,101366.78
2022-10-05T16:52:08.224Z,101366.84
2022-10-05T16:54:47.681Z,101374.75
2022-10-05T16:57:24.849Z,101370.44
2022-10-05T17:00:03.905Z,101375.75
2022-10-05T17:03:18.454Z,101374.94
2022-10-05T17:06:13.007Z,101381.97
2022-10-05T17:09:17.263Z,101371.59
2022-10-05T17:12:17.743Z,101374.28
2022-10-05T17:15:29.755Z,101380.47
2022-10-05T17:18:37.742Z,101371.78
2022-10-05T17:21:22.694Z,101369.25
2022-10-05T17:23:58.626Z,101371.06
2022-10-05T17:26:47.737Z,101374.59
2022-10-05T17:29:30.666Z,101378.13
2022-10-05T17:32:06.905Z,101373.81
2022-10-05T17:34:39.810Z,101378.22
2022-10-05T17:37:35.993Z,101373.00
2022-10-05T17:40:45.200Z,101367.81
2022-10-05T17:43:27.097Z,101371.34
2022-10-05T17:46:01.612Z,101350.50
2022-10-05T17:48:55.818Z,101363.59
2022-10-05T17:51:47.444Z,101364.50
2022-10-05T17:55:03.308Z,101362.78
2022-10-05T17:57:36.945Z,101346.34
2022-10-05T18:00:35.475Z,101368.03
2022-10-05T18:03:36.178Z,101368.09
2022-10-05T18:06:25.049Z,101365.50
2022-10-05T18:09:25.904Z,101362.91
2022-10-05T18:12:17.142Z,101361.19
2022-10-05T18:14:54.267Z,101369.94
2022-10-05T18:17:47.841Z,101362.13
2022-10-05T18:20:27.119Z,101351.66
2022-10-05T18:23:03.008Z,101358.63
2022-10-05T18:25:52.913Z,101350.88
2022-10-05T18:28:40.295Z,101355.19
2022-10-05T18:31:26.827Z,101352.69
2022-10-05T18:34:29.465Z,101361.44
2022-10-05T18:37:29.723Z,101354.44
2022-10-05T18:40:21.482Z,101354.47
2022-10-05T18:43:22.899Z,101351.03
2022-10-05T18:46:25.231Z,101347.56
2022-10-05T18:49:16.446Z,101348.47
2022-10-05T18:52:04.716Z,101346.75
2022-10-05T18:55:01.362Z,101323.34
2022-10-05T18:58:06.970Z,101338.06
2022-10-05T19:01:01.707Z,101341.56
2022-10-05T19:03:51.321Z,101346.81
2022-10-05T19:06:30.055Z,101329.44
2022-10-05T19:09:39.005Z,101330.28
2022-10-05T19:12:29.670Z,101323.38
2022-10-05T19:15:38.365Z,101332.94
2022-10-05T19:18:14.176Z,101332.09
2022-10-05T19:21:10.485Z,101331.22
2022-10-05T19:23:40.426Z,101339.91
2022-10-05T19:26:50.108Z,101334.75
2022-10-05T19:29:34.532Z,101321.75
2022-10-05T19:32:36.918Z,101337.44
2022-10-05T19:35:07.293Z,101326.06
2022-10-05T19:38:00.784Z,101335.69
2022-10-05T19:40:40.556Z,101340.91
2022-10-05T19:43:19.049Z,101334.78
2022-10-05T19:46:32.074Z,101325.25
2022-10-05T19:49:02.420Z,101334.81
2022-10-05T19:51:36.140Z,101332.22
2022-10-05T19:54:21.667Z,101336.59
2022-10-05T19:56:54.511Z,101340.97
2022-10-05T19:59:31.606Z,101343.59
2022-10-05T20:02:02.602Z,101341.00
2022-10-05T20:04:36.989Z,101339.25
2022-10-05T20:07:12.473Z,101334.06
2022-10-05T20:09:58.270Z,101326.22
2022-10-05T20:12:51.013Z,101338.38
2022-10-05T20:15:45.498Z,101337.53
2022-10-05T20:18:56.555Z,101341.91
2022-10-05T20:21:56.930Z,101347.16
2022-10-05T20:24:29.526Z,101338.47
2022-10-05T20:27:31.381Z,101330.66
2022-10-05T20:30:04.620Z,101335.88
2022-10-05T20:32:34.817Z,101340.25
2022-10-05T20:35:07.177Z,101342.00
2022-10-05T20:37:37.299Z,101338.53
2022-10-05T20:40:08.216Z,101331.59
2022-10-05T20:42:38.467Z,101335.09
2022-10-05T20:45:09.475Z,101329.84
2022-10-05T20:47:40.714Z,101329.03
2022-10-05T20:50:11.008Z,101316.88
2022-10-05T20:52:41.139Z,101329.00
2022-10-05T20:55:11.790Z,101324.69
2022-10-05T20:57:42.444Z,101316.88
2022-10-05T21:00:13.569Z,101317.72
2022-10-05T21:02:43.718Z,101315.09
2022-10-05T21:05:13.955Z,101314.25
2022-10-05T21:07:44.892Z,101318.59
2022-10-05T21:10:15.230Z,101303.81
2022-10-05T21:12:45.902Z,101309.03
2022-10-05T21:15:16.197Z,101286.44
2022-10-05T21:17:46.263Z,101309.06
2022-10-05T21:20:16.665Z,101306.44
2022-10-05T21:22:46.699Z,101304.72
2022-10-05T21:25:16.876Z,101311.66
2022-10-05T21:27:48.786Z,101310.81
2022-10-05T21:30:18.932Z,101283.00
2022-10-05T21:32:49.111Z,101307.31
2022-10-05T21:35:19.289Z,101300.38
2022-10-05T21:37:49.403Z,101300.38
2022-10-05T21:40:19.521Z,101306.47
2022-10-05T21:42:49.738Z,101308.25
2022-10-05T21:45:20.152Z,101304.78
2022-10-05T21:47:50.554Z,101307.41
2022-10-05T21:50:20.826Z,101310.88
2022-10-05T21:52:51.989Z,101311.75
2022-10-05T21:55:22.137Z,101311.72
2022-10-05T21:57:52.538Z,101303.06
2022-10-05T22:00:22.969Z,101305.66
2022-10-05T22:02:53.015Z,101305.66
2022-10-05T22:05:23.280Z,101303.06
2022-10-05T22:07:53.749Z,101295.22
2022-10-05T22:10:24.128Z,101290.06
2022-10-05T22:12:59.774Z,101290.91
2022-10-05T22:15:31.541Z,101301.31
2022-10-05T22:18:01.705Z,101296.09
2022-10-05T22:20:34.722Z,101209.34
2022-10-05T22:23:05.113Z,101289.13
2022-10-05T22:25:35.597Z,101283.91
2022-10-05T22:28:09.597Z,101293.50
2022-10-05T22:30:42.050Z,101301.31
2022-10-05T22:33:13.406Z,101303.94
2022-10-05T22:35:43.881Z,101297.84
2022-10-05T22:38:14.377Z,101292.66
2022-10-05T22:40:44.796Z,101309.16
2022-10-05T22:43:14.929Z,101310.91
2022-10-05T22:45:45.261Z,101305.69
2022-10-05T22:48:18.816Z,101287.47
2022-10-05T22:50:49.607Z,101298.75
2022-10-05T22:53:19.855Z,101291.81
2022-10-05T22:55:49.908Z,101292.66
2022-10-05T22:58:20.293Z,101294.44
2022-10-05T23:00:58.894Z,101291.84
2022-10-05T23:03:29.790Z,101305.72
2022-10-05T23:06:03.756Z,101307.50
2022-10-05T23:08:35.829Z,101300.53
2022-10-05T23:11:11.744Z,101317.94
2022-10-05T23:13:42.013Z,101310.13
2022-10-05T23:16:14.699Z,101309.25
2022-10-05T23:18:47.363Z,101311.88
2022-10-05T23:21:18.843Z,101300.56
2022-10-05T23:23:51.269Z,101309.28
2022-10-05T23:26:24.325Z,101312.72
2022-10-05T23:28:54.472Z,101309.25
2022-10-05T23:31:27.617Z,101265.91
2022-10-05T23:33:57.862Z,101319.72
2022-10-05T23:36:32.998Z,101315.38
2022-10-05T23:39:03.628Z,101320.59
2022-10-05T23:41:36.739Z,101320.59
2022-10-05T23:44:08.086Z,101316.25
2022-10-05T23:46:46.739Z,101317.13
2022-10-05T23:49:20.002Z,101315.38
2022-10-05T23:51:50.175Z,101318.00
2022-10-05T23:54:20.348Z,101312.78
2022-10-05T23:56:50.454Z,101313.63
2022-10-05T23:59:20.523Z,101311.03
